Time;durP1;ratioP1;P1;durP2;ratioP2;P2;SDS_P1;SDS_P2;PMS_P1;PMS_P2;Temp;Humidity;BMP_temperature;BMP_pressure;BME280_temperature;BME280_humidity;BME280_pressure;Samples;Min_cycle;Max_cycle;Signal;HPM_P1;HPM_P2
2021/05/16 00:00:44;;;;;;;3.90;1.58;;;10.10;82.40;;;;;;5052444;28;20212;-86
2021/05/16 00:03:11;;;;;;;5.07;1.27;;;9.90;84.70;;;;;;5052755;28;20223;-85
2021/05/16 00:05:38;;;;;;;2.05;0.90;;;9.90;85.50;;;;;;5052611;28;20200;-85
2021/05/16 00:08:06;;;;;;;0.80;0.80;;;10.10;84.00;;;;;;5053620;28;20211;-85
2021/05/16 00:10:33;;;;;;;1.63;0.80;;;10.10;83.40;;;;;;5052972;28;20208;-86
2021/05/16 00:13:00;;;;;;;3.55;0.93;;;10.10;83.20;;;;;;5053209;28;20226;-86
2021/05/16 00:15:28;;;;;;;1.95;1.10;;;10.30;83.20;;;;;;5051749;28;20215;-85
2021/05/16 00:17:55;;;;;;;1.25;1.10;;;10.30;82.80;;;;;;5052769;28;20196;-86
2021/05/16 00:20:24;;;;;;;0.63;0.55;;;10.20;82.70;;;;;;5052190;28;20295;-86
2021/05/16 00:22:51;;;;;;;1.13;1.05;;;10.30;83.00;;;;;;5053241;28;20200;-86
2021/05/16 00:25:20;;;;;;;1.50;0.85;;;10.40;83.40;;;;;;5052949;28;20204;-86
2021/05/16 00:27:47;;;;;;;1.20;1.10;;;10.40;83.50;;;;;;5053041;28;20733;-86
2021/05/16 00:30:16;;;;;;;1.70;0.85;;;10.20;82.60;;;;;;5052024;28;20200;-85
2021/05/16 00:32:43;;;;;;;0.82;0.82;;;10.30;83.30;;;;;;5052577;28;20208;-87
2021/05/16 00:35:13;;;;;;;7.35;1.35;;;10.30;83.50;;;;;;5051913;28;20220;-84
2021/05/16 00:37:40;;;;;;;1.50;1.10;;;10.30;82.70;;;;;;5052698;28;20204;-86
2021/05/16 00:40:08;;;;;;;1.38;0.98;;;10.50;82.50;;;;;;5052206;28;20290;-86
2021/05/16 00:42:35;;;;;;;0.98;0.80;;;10.60;82.30;;;;;;5052607;28;20208;-86
2021/05/16 00:45:06;;;;;;;1.48;1.10;;;10.40;81.70;;;;;;5052087;28;20200;-85
2021/05/16 00:47:32;;;;;;;0.90;0.75;;;10.40;82.70;;;;;;5052365;28;20235;-85
2021/05/16 00:49:59;;;;;;;1.27;1.13;;;10.50;83.40;;;;;;5051948;28;20211;-86
2021/05/16 00:52:26;;;;;;;1.58;0.90;;;10.70;82.70;;;;;;5052201;28;20242;-86
2021/05/16 00:54:53;;;;;;;2.80;1.15;;;10.60;81.80;;;;;;5052289;28;20204;-86
2021/05/16 00:57:20;;;;;;;3.38;1.55;;;10.50;82.90;;;;;;5052191;28;20250;-86
2021/05/16 00:59:48;;;;;;;1.77;0.90;;;10.60;83.30;;;;;;5051371;28;20208;-87
2021/05/16 01:02:15;;;;;;;1.20;1.10;;;10.50;82.50;;;;;;5046492;28;20222;-86
2021/05/16 01:04:42;;;;;;;1.35;1.08;;;10.50;83.30;;;;;;5051744;28;21318;-86
2021/05/16 01:07:10;;;;;;;2.83;0.80;;;10.70;82.70;;;;;;5051885;28;20611;-86
2021/05/16 01:09:38;;;;;;;5.63;1.25;;;10.80;82.00;;;;;;5051784;28;20626;-86
2021/05/16 01:12:08;;;;;;;1.10;1.00;;;10.90;81.10;;;;;;5051965;28;20200;-86
2021/05/16 01:14:38;;;;;;;1.77;1.23;;;10.90;81.00;;;;;;5051423;28;20223;-86
2021/05/16 01:17:06;;;;;;;4.53;1.13;;;10.80;81.00;;;;;;5052158;28;20223;-86
2021/05/16 01:19:34;;;;;;;2.53;1.20;;;10.80;81.70;;;;;;5051469;28;20291;-87
2021/05/16 01:22:05;;;;;;;4.45;1.10;;;10.80;81.90;;;;;;5057197;28;20303;-86
2021/05/16 01:24:33;;;;;;;1.25;0.90;;;10.80;81.90;;;;;;5052559;28;20308;-86
2021/05/16 01:27:02;;;;;;;3.53;1.13;;;10.90;82.30;;;;;;5051365;28;20196;-86
2021/05/16 01:29:29;;;;;;;2.05;1.15;;;10.90;81.60;;;;;;5051059;28;20204;-85
2021/05/16 01:31:57;;;;;;;1.00;1.00;;;10.90;81.50;;;;;;5051625;28;20232;-85
2021/05/16 01:34:26;;;;;;;0.90;0.90;;;10.70;82.10;;;;;;5050899;28;20684;-86
2021/05/16 01:36:53;;;;;;;2.75;1.38;;;10.60;82.30;;;;;;5051954;28;20202;-86
2021/05/16 01:39:21;;;;;;;1.90;1.40;;;10.60;82.70;;;;;;5050785;28;20196;-86
2021/05/16 01:41:49;;;;;;;1.95;1.27;;;10.40;83.30;;;;;;5051181;28;20246;-86
2021/05/16 01:44:17;;;;;;;1.50;1.15;;;10.60;84.10;;;;;;5051507;28;20625;-87
2021/05/16 01:46:46;;;;;;;3.13;1.40;;;10.70;85.70;;;;;;5051495;28;20208;-86
2021/05/16 01:49:14;;;;;;;2.25;1.27;;;10.60;88.20;;;;;;5050862;28;20227;-86
2021/05/16 01:51:41;;;;;;;3.33;1.40;;;10.40;90.40;;;;;;5051417;28;20204;-85
2021/05/16 01:54:10;;;;;;;2.03;1.60;;;10.30;90.60;;;;;;5050905;28;20243;-86
2021/05/16 01:56:38;;;;;;;4.03;1.35;;;10.50;91.00;;;;;;5048756;28;20204;-87
2021/05/16 01:59:05;;;;;;;1.40;1.30;;;10.50;91.00;;;;;;5045663;28;20291;-86
2021/05/16 02:01:34;;;;;;;1.80;1.35;;;10.50;91.50;;;;;;5048244;28;20203;-87
2021/05/16 02:04:02;;;;;;;2.42;1.40;;;10.60;92.10;;;;;;5050666;28;20283;-85
2021/05/16 02:06:30;;;;;;;1.55;1.45;;;10.60;91.40;;;;;;5050463;28;20198;-85
2021/05/16 02:08:57;;;;;;;1.70;1.42;;;10.50;91.50;;;;;;5050735;28;20200;-85
2021/05/16 02:11:25;;;;;;;3.53;1.80;;;10.70;91.50;;;;;;5050982;28;20196;-86
2021/05/16 02:13:53;;;;;;;1.20;1.10;;;10.70;91.70;;;;;;5050488;28;20265;-85
2021/05/16 02:16:22;;;;;;;1.40;1.30;;;10.70;91.20;;;;;;5050615;28;20211;-86
2021/05/16 02:18:49;;;;;;;2.10;1.60;;;10.70;91.50;;;;;;5050278;28;20603;-85
2021/05/16 02:21:17;;;;;;;1.83;1.73;;;10.60;91.60;;;;;;5050644;28;20283;-85
2021/05/16 02:23:47;;;;;;;2.22;1.92;;;10.70;91.80;;;;;;5050956;28;20188;-84
2021/05/16 02:26:15;;;;;;;3.10;2.28;;;10.60;92.00;;;;;;5050488;28;20752;-83
2021/05/16 02:28:42;;;;;;;3.65;1.70;;;10.50;92.70;;;;;;5049570;28;20204;-82
2021/05/16 02:31:14;;;;;;;2.10;1.90;;;10.50;93.50;;;;;;5049669;28;20672;-82
2021/05/16 02:33:41;;;;;;;2.00;1.80;;;10.60;93.40;;;;;;5049670;28;20613;-82
2021/05/16 02:36:07;;;;;;;3.00;1.80;;;10.40;93.50;;;;;;5049653;28;20200;-82
2021/05/16 02:38:34;;;;;;;1.70;1.60;;;10.40;94.20;;;;;;5048322;28;20200;-82
2021/05/16 02:41:00;;;;;;;1.50;1.38;;;10.40;94.50;;;;;;5050661;28;20261;-82
2021/05/16 02:43:26;;;;;;;4.80;2.35;;;10.50;94.90;;;;;;5049918;28;20211;-82
2021/05/16 02:45:53;;;;;;;2.35;1.58;;;10.40;94.70;;;;;;5049877;28;20196;-81
2021/05/16 02:48:20;;;;;;;6.28;1.90;;;10.40;95.10;;;;;;5049943;28;20203;-82
2021/05/16 02:50:46;;;;;;;2.05;1.92;;;10.50;95.00;;;;;;5049806;28;20196;-82
2021/05/16 02:53:14;;;;;;;5.00;1.75;;;10.60;94.80;;;;;;5044524;28;20235;-81
2021/05/16 02:55:41;;;;;;;2.00;1.80;;;10.70;94.50;;;;;;5050074;28;20224;-82
2021/05/16 02:58:07;;;;;;;2.67;2.00;;;10.80;94.80;;;;;;5049708;28;20281;-81
2021/05/16 03:00:33;;;;;;;4.53;2.47;;;10.80;94.50;;;;;;5035671;28;20262;-81
2021/05/16 03:03:01;;;;;;;2.08;1.85;;;10.60;93.50;;;;;;5050170;28;20621;-82
2021/05/16 03:05:30;;;;;;;2.55;1.70;;;10.30;94.20;;;;;;5048944;28;20208;-82
2021/05/16 03:07:56;;;;;;;2.55;1.67;;;10.30;94.90;;;;;;5050125;28;20246;-81
2021/05/16 03:10:23;;;;;;;2.60;1.95;;;10.30;95.10;;;;;;5049145;28;20230;-81
2021/05/16 03:12:50;;;;;;;2.85;2.00;;;10.30;94.80;;;;;;5049879;28;20290;-81
2021/05/16 03:15:17;;;;;;;3.08;1.55;;;10.40;95.50;;;;;;5049099;28;20688;-81
2021/05/16 03:17:44;;;;;;;3.55;1.75;;;10.40;94.70;;;;;;5050134;28;20223;-82
2021/05/16 03:20:12;;;;;;;2.28;1.85;;;10.60;94.70;;;;;;5049222;28;20226;-81
2021/05/16 03:22:41;;;;;;;1.70;1.60;;;10.50;94.80;;;;;;5049912;28;20211;-81
2021/05/16 03:25:11;;;;;;;2.90;1.92;;;10.70;95.30;;;;;;5049564;28;20200;-82
2021/05/16 03:27:38;;;;;;;2.78;1.63;;;10.80;94.60;;;;;;5049456;28;20203;-82
2021/05/16 03:30:06;;;;;;;2.35;2.15;;;10.70;94.50;;;;;;5048964;28;20206;-82
2021/05/16 03:32:36;;;;;;;2.58;1.90;;;10.80;94.30;;;;;;5049905;28;20211;-82
2021/05/16 03:35:04;;;;;;;2.15;1.77;;;10.90;94.50;;;;;;5049171;28;20277;-82
2021/05/16 03:37:32;;;;;;;4.50;1.40;;;10.80;93.70;;;;;;5049942;28;20238;-82
2021/05/16 03:40:02;;;;;;;2.00;1.42;;;10.80;93.90;;;;;;5048352;28;20257;-82
2021/05/16 03:42:30;;;;;;;1.75;1.65;;;10.70;93.50;;;;;;5049813;28;20199;-82
2021/05/16 03:44:58;;;;;;;2.08;1.38;;;10.80;94.40;;;;;;5049447;28;20251;-82
2021/05/16 03:47:26;;;;;;;2.45;1.75;;;10.90;94.60;;;;;;5049715;28;20227;-82
2021/05/16 03:49:53;;;;;;;1.42;1.33;;;10.90;94.10;;;;;;5050895;28;20200;-82
2021/05/16 03:52:21;;;;;;;1.48;1.38;;;10.80;93.50;;;;;;5053300;28;20670;-82
2021/05/16 03:54:50;;;;;;;1.70;1.60;;;10.90;93.80;;;;;;5052299;28;20251;-82
2021/05/16 03:57:21;;;;;;;1.30;1.20;;;11.00;93.40;;;;;;5053116;28;20721;-82
2021/05/16 03:59:49;;;;;;;2.97;1.65;;;10.80;92.60;;;;;;5052380;28;20239;-82
2021/05/16 04:02:16;;;;;;;2.67;1.65;;;10.80;93.80;;;;;;5052630;28;20196;-82
2021/05/16 04:04:44;;;;;;;1.90;1.70;;;10.90;93.80;;;;;;5052116;28;20211;-83
2021/05/16 04:07:11;;;;;;;2.30;1.80;;;10.90;93.70;;;;;;5052717;28;20200;-83
2021/05/16 04:09:38;;;;;;;2.90;2.70;;;11.00;93.80;;;;;;5051972;28;20246;-83
2021/05/16 04:12:07;;;;;;;1.60;1.50;;;11.00;93.70;;;;;;5052938;28;20192;-83
2021/05/16 04:14:35;;;;;;;2.38;1.30;;;11.00;93.70;;;;;;5052741;28;20220;-83
2021/05/16 04:17:02;;;;;;;3.78;1.55;;;11.10;93.80;;;;;;5052787;28;20204;-83
2021/05/16 04:19:29;;;;;;;3.83;1.85;;;11.00;94.20;;;;;;5052340;28;20199;-83
2021/05/16 04:21:57;;;;;;;1.67;1.50;;;11.10;93.50;;;;;;5052971;28;20609;-83
2021/05/16 04:24:24;;;;;;;2.20;1.50;;;11.20;93.50;;;;;;5052602;28;20192;-83
2021/05/16 04:26:51;;;;;;;4.40;2.00;;;11.20;93.80;;;;;;5052640;28;20200;-83
2021/05/16 04:29:18;;;;;;;1.63;1.52;;;11.20;93.90;;;;;;5051826;28;20226;-83
2021/05/16 04:31:46;;;;;;;3.72;1.40;;;11.20;94.40;;;;;;5052597;28;20822;-83
2021/05/16 04:34:12;;;;;;;1.80;1.60;;;11.20;93.70;;;;;;5051043;28;20223;-83
2021/05/16 04:36:39;;;;;;;1.30;1.20;;;11.10;93.40;;;;;;5052408;28;20204;-83
2021/05/16 04:39:07;;;;;;;2.00;1.80;;;11.00;93.70;;;;;;5051329;28;20207;-83
2021/05/16 04:41:35;;;;;;;2.00;1.70;;;11.00;93.80;;;;;;5052309;28;20688;-84
2021/05/16 04:44:02;;;;;;;1.52;1.42;;;11.00;94.50;;;;;;5051785;28;20192;-83
2021/05/16 04:46:30;;;;;;;1.65;1.40;;;11.00;94.30;;;;;;5052354;28;20196;-83
2021/05/16 04:48:58;;;;;;;2.40;1.53;;;11.00;93.90;;;;;;5050843;28;20286;-83
2021/05/16 04:51:25;;;;;;;3.88;1.52;;;11.20;94.00;;;;;;5052473;28;20618;-83
2021/05/16 04:53:52;;;;;;;1.52;1.42;;;11.20;93.70;;;;;;5051715;28;20699;-84
2021/05/16 04:56:20;;;;;;;1.60;1.48;;;11.10;93.70;;;;;;5052472;28;20232;-83
2021/05/16 04:58:47;;;;;;;2.40;1.42;;;11.00;93.90;;;;;;5051087;28;20200;-83
2021/05/16 05:01:15;;;;;;;2.13;1.55;;;11.00;94.00;;;;;;5050720;28;20207;-84
2021/05/16 05:03:45;;;;;;;2.22;1.40;;;11.10;94.00;;;;;;5051358;28;20220;-85
2021/05/16 05:06:13;;;;;;;1.40;1.30;;;11.10;94.00;;;;;;5052195;28;20733;-84
2021/05/16 05:08:40;;;;;;;3.65;1.15;;;11.30;94.10;;;;;;5051030;28;20630;-84
2021/05/16 05:11:08;;;;;;;1.20;1.10;;;11.20;93.30;;;;;;5033450;28;20262;-85
2021/05/16 05:13:35;;;;;;;1.83;1.20;;;11.30;93.50;;;;;;5052164;28;20200;-85
2021/05/16 05:16:02;;;;;;;0.85;0.82;;;11.30;93.60;;;;;;5050618;28;20433;-85
2021/05/16 05:18:31;;;;;;;0.90;0.90;;;11.20;93.70;;;;;;5051359;28;20743;-84
2021/05/16 05:20:59;;;;;;;1.73;1.30;;;11.20;93.20;;;;;;5051331;28;20608;-85
2021/05/16 05:23:27;;;;;;;1.50;0.90;;;11.20;93.60;;;;;;5045991;28;20310;-84
2021/05/16 05:25:56;;;;;;;4.20;1.13;;;11.30;93.70;;;;;;5051329;28;20230;-84
2021/05/16 05:28:24;;;;;;;2.83;2.13;;;11.20;93.40;;;;;;5051045;28;20618;-84
2021/05/16 05:30:51;;;;;;;2.13;0.90;;;11.20;94.00;;;;;;5048321;28;20632;-84
2021/05/16 05:33:19;;;;;;;1.83;1.13;;;11.40;93.80;;;;;;5051323;28;20630;-83
2021/05/16 05:35:47;;;;;;;0.80;0.80;;;11.10;94.90;;;;;;5051282;28;20212;-85
2021/05/16 05:38:14;;;;;;;1.20;1.15;;;11.20;95.00;;;;;;5050276;28;20298;-84
2021/05/16 05:40:42;;;;;;;1.20;0.90;;;11.00;95.80;;;;;;5050385;28;20657;-84
2021/05/16 05:43:09;;;;;;;1.35;0.80;;;11.00;95.60;;;;;;5051252;28;20228;-84
2021/05/16 05:45:36;;;;;;;1.60;1.23;;;11.00;95.90;;;;;;5051045;28;20187;-85
2021/05/16 05:48:02;;;;;;;0.90;0.90;;;11.20;95.80;;;;;;5049028;28;20240;-84
2021/05/16 05:50:29;;;;;;;1.10;1.00;;;11.20;95.40;;;;;;5050881;28;20699;-84
2021/05/16 05:52:55;;;;;;;1.17;1.07;;;11.20;94.90;;;;;;5054854;28;20684;-84
2021/05/16 05:55:22;;;;;;;1.83;1.73;;;11.20;95.10;;;;;;5051524;28;20724;-84
2021/05/16 05:57:49;;;;;;;2.60;1.80;;;11.20;95.30;;;;;;5049827;28;20618;-85
2021/05/16 06:00:16;;;;;;;1.10;1.00;;;11.30;95.30;;;;;;5049648;28;20622;-85
2021/05/16 06:02:43;;;;;;;3.70;1.55;;;11.30;94.90;;;;;;5050442;28;20204;-85
2021/05/16 06:05:10;;;;;;;1.87;1.60;;;11.20;95.00;;;;;;5046324;28;20204;-84
2021/05/16 06:07:37;;;;;;;1.10;1.03;;;11.20;95.20;;;;;;5051102;28;21018;-84
2021/05/16 06:10:04;;;;;;;1.53;1.20;;;11.10;95.10;;;;;;5050597;28;21279;-84
2021/05/16 06:12:31;;;;;;;1.35;1.02;;;11.20;95.60;;;;;;5050766;28;20614;-85
2021/05/16 06:14:59;;;;;;;0.80;0.80;;;11.30;95.60;;;;;;5050594;28;20879;-84
2021/05/16 06:17:26;;;;;;;1.67;1.35;;;11.50;95.50;;;;;;5050397;28;20559;-84
2021/05/16 06:19:52;;;;;;;3.17;1.10;;;11.50;95.50;;;;;;5050108;28;20661;-84
2021/05/16 06:22:19;;;;;;;1.25;0.90;;;11.80;95.60;;;;;;5050518;28;20629;-84
2021/05/16 06:24:46;;;;;;;0.97;0.90;;;11.90;94.40;;;;;;5049890;28;20191;-85
2021/05/16 06:27:12;;;;;;;2.20;1.30;;;12.20;94.20;;;;;;5050639;28;20695;-84
2021/05/16 06:29:39;;;;;;;1.40;1.00;;;12.20;93.60;;;;;;5049754;28;20625;-84
2021/05/16 06:32:09;;;;;;;1.13;1.00;;;12.30;93.80;;;;;;5050127;28;20618;-84
2021/05/16 06:34:35;;;;;;;1.10;1.00;;;12.40;93.50;;;;;;5050127;28;20653;-85
2021/05/16 06:37:02;;;;;;;0.80;0.80;;;12.30;92.50;;;;;;5050253;28;20637;-84
2021/05/16 06:39:29;;;;;;;1.77;1.00;;;12.40;93.20;;;;;;5049073;28;20626;-84
2021/05/16 06:41:55;;;;;;;2.30;0.80;;;12.70;93.00;;;;;;5044870;28;20664;-83
2021/05/16 06:44:22;;;;;;;0.80;0.80;;;12.80;91.80;;;;;;5050157;28;20618;-85
2021/05/16 06:46:49;;;;;;;0.80;0.80;;;12.80;91.10;;;;;;5050364;28;20679;-84
2021/05/16 06:49:16;;;;;;;1.97;0.93;;;12.90;91.20;;;;;;5049622;28;20657;-86
2021/05/16 06:51:42;;;;;;;1.60;1.20;;;13.20;91.30;;;;;;5050207;28;20704;-86
2021/05/16 06:54:09;;;;;;;1.33;1.00;;;13.30;90.30;;;;;;5049276;28;21094;-85
2021/05/16 06:56:36;;;;;;;0.80;0.80;;;13.10;89.20;;;;;;5050521;28;20618;-86
2021/05/16 06:59:02;;;;;;;1.53;0.83;;;13.20;90.50;;;;;;5049731;28;20637;-86
2021/05/16 07:01:29;;;;;;;0.77;0.77;;;13.50;90.40;;;;;;5050022;28;20989;-86
2021/05/16 07:03:55;;;;;;;1.00;0.90;;;13.80;88.20;;;;;;5049322;28;20662;-85
2021/05/16 07:06:23;;;;;;;0.60;0.60;;;13.70;88.60;;;;;;5049400;28;20634;-87
2021/05/16 07:08:50;;;;;;;1.37;0.67;;;14.00;88.70;;;;;;5048577;28;20627;-84
2021/05/16 07:11:17;;;;;;;1.23;0.77;;;13.80;86.00;;;;;;5048981;28;20626;-85
2021/05/16 07:13:43;;;;;;;2.13;0.70;;;13.70;85.20;;;;;;5049883;28;20623;-85
2021/05/16 07:16:10;;;;;;;1.00;0.70;;;13.60;84.50;;;;;;5049569;28;20752;-86
2021/05/16 07:18:36;;;;;;;3.47;0.63;;;13.80;86.00;;;;;;5049239;28;21113;-86
2021/05/16 07:21:03;;;;;;;0.70;0.70;;;13.90;85.20;;;;;;5049611;28;20626;-87
2021/05/16 07:23:30;;;;;;;1.53;0.80;;;14.00;85.80;;;;;;5050528;28;20653;-86
2021/05/16 07:25:58;;;;;;;1.00;0.80;;;13.90;84.60;;;;;;5053079;28;20614;-86
2021/05/16 07:28:24;;;;;;;0.57;0.53;;;13.90;85.20;;;;;;5053959;28;20606;-86
2021/05/16 07:30:51;;;;;;;0.90;0.80;;;13.80;83.50;;;;;;5053569;28;20646;-86
2021/05/16 07:33:17;;;;;;;0.80;0.73;;;13.90;83.60;;;;;;5053728;28;20610;-87
2021/05/16 07:35:44;;;;;;;1.10;1.00;;;14.10;83.50;;;;;;5053563;28;20657;-86
2021/05/16 07:38:10;;;;;;;3.03;1.20;;;14.20;81.60;;;;;;5052051;28;20614;-85
2021/05/16 07:40:37;;;;;;;1.83;0.90;;;14.20;80.90;;;;;;5051912;28;20622;-85
2021/05/16 07:43:04;;;;;;;1.60;0.80;;;14.20;83.50;;;;;;5052381;28;20635;-85
2021/05/16 07:45:31;;;;;;;1.57;0.70;;;14.20;82.60;;;;;;5052610;28;20667;-85
2021/05/16 07:47:57;;;;;;;0.90;0.70;;;14.10;80.20;;;;;;5052176;28;21569;-86
2021/05/16 07:50:24;;;;;;;0.90;0.70;;;13.80;80.80;;;;;;5051388;28;20611;-85
2021/05/16 07:52:51;;;;;;;1.10;0.80;;;13.80;83.80;;;;;;5052604;28;20676;-85
2021/05/16 07:55:17;;;;;;;1.13;0.90;;;14.10;82.70;;;;;;5048744;28;20643;-86
2021/05/16 07:57:44;;;;;;;2.07;0.90;;;14.50;80.80;;;;;;5048295;28;20629;-85
2021/05/16 08:00:12;;;;;;;2.63;0.93;;;14.80;78.10;;;;;;5059641;28;20618;-87
2021/05/16 08:02:41;;;;;;;0.80;0.80;;;15.00;76.40;;;;;;5052054;28;20614;-85
2021/05/16 08:05:09;;;;;;;2.20;1.43;;;14.50;74.90;;;;;;5052346;28;21003;-87
2021/05/16 08:07:35;;;;;;;1.73;1.07;;;14.40;74.80;;;;;;5054925;28;20647;-87
2021/05/16 08:10:02;;;;;;;2.03;0.97;;;14.40;77.10;;;;;;5052381;28;20741;-87
2021/05/16 08:12:48;;;;;;;3.90;1.93;;;13.90;77.20;;;;;;5053748;28;20725;-88
2021/05/16 08:19:07;;;;;;;4.00;1.33;;;12.90;88.50;;;;;;4981877;28;21226;-87
2021/05/16 08:21:52;;;;;;;3.40;1.10;;;12.80;92.30;;;;;;5013347;28;21241;-88
2021/05/16 08:24:23;;;;;;;5.17;2.20;;;12.70;93.60;;;;;;5050186;28;20637;-88
2021/05/16 08:26:50;;;;;;;1.67;1.47;;;13.00;94.90;;;;;;5051165;28;20637;-86
2021/05/16 08:29:18;;;;;;;1.93;1.20;;;12.90;94.10;;;;;;5050755;28;21349;-86
2021/05/16 08:31:52;;;;;;;1.27;1.07;;;13.10;95.90;;;;;;5045639;28;20642;-87
2021/05/16 08:34:29;;;;;;;1.70;1.40;;;13.00;95.20;;;;;;5050064;28;20641;-85
2021/05/16 08:36:58;;;;;;;1.33;1.17;;;12.90;94.90;;;;;;5051249;28;21435;-85
2021/05/16 08:39:31;;;;;;;1.93;1.70;;;13.00;95.00;;;;;;5051755;28;20675;-85
2021/05/16 08:42:03;;;;;;;2.03;1.50;;;13.30;95.10;;;;;;5051876;28;20980;-86
2021/05/16 08:44:32;;;;;;;4.20;1.60;;;13.80;94.70;;;;;;5051002;28;20646;-84
2021/05/16 08:47:02;;;;;;;1.87;1.43;;;14.30;93.90;;;;;;5052201;28;20625;-85
2021/05/16 08:49:30;;;;;;;4.90;1.30;;;14.20;92.10;;;;;;5051792;28;21190;-86
2021/05/16 08:51:56;;;;;;;2.07;1.77;;;14.20;91.60;;;;;;5054121;28;20625;-84
2021/05/16 08:54:32;;;;;;;7.10;1.43;;;14.20;90.30;;;;;;5054047;28;21259;-86
2021/05/16 08:57:06;;;;;;;1.80;1.17;;;14.30;87.90;;;;;;5052521;28;20610;-84
2021/05/16 08:59:33;;;;;;;1.10;1.00;;;14.50;86.20;;;;;;5051346;28;20627;-85
2021/05/16 09:02:00;;;;;;;3.03;1.70;;;14.90;84.60;;;;;;5051970;28;20620;-84
2021/05/16 09:04:33;;;;;;;1.20;1.03;;;15.30;83.60;;;;;;5051707;28;20634;-85
2021/05/16 09:06:59;;;;;;;8.10;1.60;;;14.80;81.30;;;;;;5051356;28;21175;-85
2021/05/16 09:09:34;;;;;;;2.53;1.30;;;14.60;80.40;;;;;;5048809;28;20635;-86
2021/05/16 09:12:03;;;;;;;3.13;1.50;;;14.70;83.80;;;;;;5050963;28;20621;-87
2021/05/16 09:14:59;;;;;;;4.47;1.50;;;14.90;85.90;;;;;;5051538;28;20655;-86
2021/05/16 09:17:35;;;;;;;1.47;0.90;;;15.30;83.30;;;;;;5031607;28;21064;-85
2021/05/16 09:20:05;;;;;;;5.00;1.60;;;15.20;78.90;;;;;;5050616;28;20693;-86
2021/05/16 09:22:35;;;;;;;1.43;1.27;;;15.00;76.30;;;;;;5051118;28;20960;-85
2021/05/16 09:25:10;;;;;;;1.50;1.40;;;15.10;77.70;;;;;;5051399;28;21205;-85
2021/05/16 09:27:37;;;;;;;1.60;1.50;;;15.30;74.00;;;;;;5042546;28;20624;-85
2021/05/16 09:30:23;;;;;;;1.67;1.47;;;15.60;74.70;;;;;;5050983;28;20625;-85
2021/05/16 09:32:52;;;;;;;2.40;1.30;;;15.70;73.50;;;;;;5046249;28;21239;-86
2021/05/16 09:35:26;;;;;;;2.00;1.23;;;15.90;67.10;;;;;;5050456;28;20638;-84
2021/05/16 09:38:04;;;;;;;6.60;1.43;;;15.70;66.80;;;;;;5050937;28;20621;-84
2021/05/16 09:40:32;;;;;;;3.57;1.53;;;15.60;66.40;;;;;;5050530;28;20621;-85
2021/05/16 09:43:09;;;;;;;3.03;0.97;;;15.70;66.60;;;;;;5050816;28;20621;-86
2021/05/16 09:45:53;;;;;;;3.73;1.37;;;16.00;70.10;;;;;;5047124;28;20618;-85
2021/05/16 09:48:29;;;;;;;3.90;1.20;;;16.60;70.30;;;;;;5050643;28;20618;-86
2021/05/16 09:51:17;;;;;;;2.20;1.17;;;16.60;65.30;;;;;;5050766;28;20614;-85
2021/05/16 09:53:55;;;;;;;1.57;1.47;;;16.70;66.30;;;;;;5043128;28;20626;-86
2021/05/16 09:56:24;;;;;;;1.47;0.90;;;17.20;65.00;;;;;;5050705;28;20669;-85
2021/05/16 09:58:52;;;;;;;1.80;1.20;;;17.60;61.70;;;;;;5050523;28;20622;-86
2021/05/16 10:01:19;;;;;;;1.90;1.00;;;17.70;61.20;;;;;;5049265;28;20614;-86
2021/05/16 10:03:48;;;;;;;2.43;1.10;;;17.60;58.80;;;;;;5049552;28;20637;-85
2021/05/16 10:06:16;;;;;;;3.50;1.43;;;17.40;58.30;;;;;;5049909;28;20705;-86
2021/05/16 10:08:45;;;;;;;1.83;1.40;;;17.40;57.30;;;;;;5050184;28;21370;-86
2021/05/16 10:11:13;;;;;;;2.57;1.33;;;17.40;59.20;;;;;;5050511;28;21094;-86
2021/05/16 10:13:42;;;;;;;1.37;0.73;;;17.80;59.70;;;;;;5050718;28;20708;-86
2021/05/16 10:16:14;;;;;;;2.53;1.10;;;17.90;58.90;;;;;;5049806;28;20651;-85
2021/05/16 10:18:43;;;;;;;1.03;0.50;;;17.80;57.10;;;;;;5050098;28;20623;-85
2021/05/16 10:21:09;;;;;;;3.00;1.20;;;18.10;56.30;;;;;;5054424;28;20658;-86
2021/05/16 10:23:38;;;;;;;1.23;1.03;;;18.30;56.30;;;;;;5060425;28;20614;-87
2021/05/16 10:26:24;;;;;;;1.77;1.00;;;18.00;54.30;;;;;;5050954;28;21118;-87
2021/05/16 10:28:56;;;;;;;1.17;1.00;;;18.30;55.50;;;;;;5040918;28;21178;-86
2021/05/16 10:31:52;;;;;;;2.57;0.90;;;18.90;56.10;;;;;;5050507;28;20733;-86
2021/05/16 10:34:41;;;;;;;3.63;1.63;;;19.40;56.10;;;;;;5049775;28;20625;-87
2021/05/16 10:37:12;;;;;;;3.43;1.60;;;18.90;54.00;;;;;;5050484;28;20619;-88
2021/05/16 10:39:50;;;;;;;1.47;1.00;;;18.60;53.70;;;;;;5049785;28;20667;-87
2021/05/16 10:42:19;;;;;;;1.47;1.23;;;18.30;53.90;;;;;;5050154;28;20629;-88
2021/05/16 10:44:56;;;;;;;1.87;0.93;;;18.00;54.10;;;;;;5049786;28;20709;-87
2021/05/16 10:47:52;;;;;;;4.73;0.80;;;17.60;53.70;;;;;;5050435;28;21158;-87
2021/05/16 10:50:45;;;;;;;4.20;1.20;;;17.60;54.60;;;;;;5025615;28;20624;-88
2021/05/16 10:53:15;;;;;;;5.60;1.70;;;17.50;55.30;;;;;;5049903;28;20630;-87
2021/05/16 10:55:44;;;;;;;2.37;1.30;;;17.30;55.20;;;;;;5049395;28;20654;-87
2021/05/16 10:58:53;;;;;;;1.87;0.83;;;17.50;56.70;;;;;;5049995;28;20630;-88
2021/05/16 11:01:32;;;;;;;1.07;1.07;;;17.40;53.90;;;;;;5034273;28;21425;-87
2021/05/16 11:04:01;;;;;;;2.53;2.17;;;18.20;54.30;;;;;;5051440;28;20638;-88
2021/05/16 11:06:58;;;;;;;1.20;1.10;;;18.80;54.60;;;;;;5053830;28;20634;-86
2021/05/16 11:09:34;;;;;;;2.20;1.27;;;19.10;53.00;;;;;;5053559;28;20652;-87
2021/05/16 11:12:03;;;;;;;1.50;1.27;;;19.50;54.70;;;;;;5053595;28;20632;-87
2021/05/16 11:14:39;;;;;;;2.50;1.00;;;19.30;51.40;;;;;;5053086;28;20701;-87
2021/05/16 11:17:08;;;;;;;2.87;1.00;;;19.30;51.40;;;;;;5054299;28;20652;-87
2021/05/16 11:19:36;;;;;;;3.13;0.90;;;19.50;51.90;;;;;;5053751;28;20724;-87
2021/05/16 11:22:22;;;;;;;3.07;1.47;;;19.70;50.90;;;;;;5053863;28;20627;-87
2021/05/16 11:24:51;;;;;;;2.93;0.90;;;19.70;51.50;;;;;;5043582;28;20708;-88
2021/05/16 11:27:30;;;;;;;1.53;1.43;;;19.80;51.70;;;;;;5053619;28;20606;-88
2021/05/16 11:29:59;;;;;;;1.13;0.80;;;19.60;49.90;;;;;;5053165;28;20625;-88
2021/05/16 11:32:31;;;;;;;2.97;1.10;;;19.50;51.30;;;;;;5053813;28;20620;-88
2021/05/16 11:35:08;;;;;;;2.90;0.60;;;19.30;51.20;;;;;;5053395;28;20650;-88
2021/05/16 11:37:35;;;;;;;2.83;1.00;;;19.10;48.50;;;;;;5053528;28;20613;-87
2021/05/16 11:40:19;;;;;;;3.53;1.33;;;19.40;51.30;;;;;;5052879;28;20626;-88
2021/05/16 11:42:47;;;;;;;1.70;1.10;;;19.20;49.10;;;;;;5053792;28;20671;-88
2021/05/16 11:45:16;;;;;;;3.73;0.90;;;19.50;51.40;;;;;;5053351;28;20614;-89
2021/05/16 11:47:44;;;;;;;6.13;3.00;;;21.10;49.40;;;;;;5053452;28;20625;-88
2021/05/16 11:50:12;;;;;;;1.00;0.90;;;22.40;48.80;;;;;;5056628;28;20618;-88
2021/05/16 11:52:39;;;;;;;1.50;0.80;;;24.90;48.20;;;;;;5071502;28;20627;-89
2021/05/16 11:55:08;;;;;;;1.27;0.77;;;24.60;42.70;;;;;;5053461;28;20646;-89
2021/05/16 11:57:35;;;;;;;2.47;0.90;;;24.80;41.90;;;;;;5053922;28;20622;-89
2021/05/16 12:00:08;;;;;;;1.43;0.77;;;24.20;44.90;;;;;;5053175;28;20629;-89
2021/05/16 12:02:37;;;;;;;1.90;1.20;;;23.10;45.00;;;;;;5053776;28;20957;-89
2021/05/16 12:05:04;;;;;;;1.50;1.13;;;23.00;46.30;;;;;;5053552;28;20626;-90
2021/05/16 12:07:51;;;;;;;3.87;1.20;;;23.10;45.70;;;;;;5050791;28;20628;-90
2021/05/16 12:10:21;;;;;;;1.20;0.73;;;23.90;46.30;;;;;;5047167;28;20653;-88
2021/05/16 12:12:56;;;;;;;0.93;0.60;;;25.90;44.50;;;;;;5051685;28;20725;-90
2021/05/16 12:15:27;;;;;;;0.73;0.70;;;26.10;40.80;;;;;;5052968;28;20711;-90
2021/05/16 12:17:54;;;;;;;2.23;1.10;;;28.10;39.40;;;;;;5053526;28;21189;-90
2021/05/16 12:20:24;;;;;;;2.03;0.70;;;29.00;37.20;;;;;;5053040;28;20621;-90
2021/05/16 12:22:51;;;;;;;0.80;0.80;;;28.70;34.40;;;;;;5053096;28;21186;-88
2021/05/16 12:25:30;;;;;;;2.83;0.77;;;27.10;37.30;;;;;;5053011;28;20707;-91
2021/05/16 12:28:01;;;;;;;1.30;1.20;;;25.40;38.00;;;;;;5059080;28;20626;-90
2021/05/16 12:30:31;;;;;;;1.43;1.33;;;25.20;40.90;;;;;;5051213;28;20630;-89
2021/05/16 12:33:06;;;;;;;1.87;1.27;;;25.20;41.80;;;;;;5052421;28;21278;-90
2021/05/16 12:35:38;;;;;;;3.87;0.87;;;24.20;41.30;;;;;;5052421;28;20641;-89
2021/05/16 12:38:11;;;;;;;2.30;1.20;;;22.20;41.00;;;;;;5051446;28;20631;-88
2021/05/16 12:40:42;;;;;;;1.60;1.13;;;21.00;43.20;;;;;;5048075;28;21222;-89
2021/05/16 12:43:14;;;;;;;2.77;1.23;;;20.30;44.80;;;;;;5053908;28;20671;-90
2021/05/16 12:45:59;;;;;;;3.60;1.60;;;20.20;46.40;;;;;;5051658;28;20730;-91
2021/05/16 12:48:26;;;;;;;3.53;1.50;;;20.30;45.40;;;;;;5045444;28;20660;-90
2021/05/16 12:50:56;;;;;;;2.33;0.90;;;20.10;46.70;;;;;;5052946;28;21067;-89
2021/05/16 12:53:29;;;;;;;1.13;1.03;;;20.30;47.20;;;;;;5052897;28;20638;-91
2021/05/16 12:55:57;;;;;;;1.30;0.90;;;20.50;47.10;;;;;;5050187;28;20701;-90
2021/05/16 12:58:33;;;;;;;1.73;1.03;;;20.40;45.80;;;;;;5053078;28;20630;-90
2021/05/16 13:01:04;;;;;;;2.33;1.00;;;20.20;46.70;;;;;;5049304;28;21262;-90
2021/05/16 13:03:33;;;;;;;3.87;1.10;;;20.30;46.60;;;;;;5051727;28;20626;-91